createdAt,value
2017-09-14T00:00:07.744Z,100168.17
2017-09-14T00:02:33.988Z,100163.38
2017-09-14T00:05:00.268Z,100162.37
2017-09-14T00:07:26.488Z,100164.05
2017-09-14T00:09:52.702Z,100166.98
2017-09-14T00:12:18.979Z,100157.02
2017-09-14T00:14:45.204Z,100161.96
2017-09-14T00:17:11.422Z,100157.75
2017-09-14T00:19:37.776Z,100163.73
2017-09-14T00:22:03.999Z,100166.75
2017-09-14T00:24:30.240Z,100168.09
2017-09-14T00:26:56.527Z,100167.53
2017-09-14T00:29:22.745Z,100168.34
2017-09-14T00:31:48.953Z,100168.35
2017-09-14T00:34:15.238Z,100163.85
2017-09-14T00:36:41.463Z,100157.11
2017-09-14T00:39:07.686Z,100162.29
2017-09-14T00:41:33.983Z,100162.16
2017-09-14T00:44:00.223Z,100156.77
2017-09-14T00:46:26.446Z,100160.27
2017-09-14T00:48:52.724Z,100161.68
2017-09-14T00:51:18.935Z,100153.64
2017-09-14T00:53:45.166Z,100151.99
2017-09-14T00:56:11.468Z,100149.77
2017-09-14T00:58:37.702Z,100159.29
2017-09-14T01:01:03.940Z,100158.87
2017-09-14T01:03:30.220Z,100154.58
2017-09-14T01:05:56.490Z,100150.38
2017-09-14T01:08:22.710Z,100146.66
2017-09-14T01:10:48.978Z,100150.88
2017-09-14T01:13:15.210Z,100149.55
2017-09-14T01:15:41.436Z,100152.89
2017-09-14T01:18:07.728Z,100148.42
2017-09-14T01:20:33.941Z,100148.05
2017-09-14T01:23:00.156Z,100142.37
2017-09-14T01:25:26.424Z,100146.42
2017-09-14T01:27:52.637Z,100144.71
2017-09-14T01:30:18.850Z,100148.47
2017-09-14T01:32:45.125Z,100146.34
2017-09-14T01:35:11.452Z,100141.52
2017-09-14T01:37:37.673Z,100143.39
2017-09-14T01:40:03.957Z,100143.25
2017-09-14T01:42:30.177Z,100144.94
2017-09-14T01:44:56.400Z,100147.91
2017-09-14T01:47:22.695Z,100150.61
2017-09-14T01:49:49.044Z,100146.97
2017-09-14T01:52:15.272Z,100146.78
2017-09-14T01:54:41.711Z,100151.09
2017-09-14T01:57:08.098Z,100158.78
2017-09-14T01:59:34.538Z,100156.47
2017-09-14T02:02:01.012Z,100152.27
2017-09-14T02:04:27.223Z,100151.72
2017-09-14T02:06:53.428Z,100154.42
2017-09-14T02:09:19.699Z,100152.66
2017-09-14T02:11:45.913Z,100154.80
2017-09-14T02:14:12.129Z,100156.05
2017-09-14T02:16:38.416Z,100152.44
2017-09-14T02:19:04.644Z,100152.03
2017-09-14T02:21:30.884Z,100157.12
2017-09-14T02:23:57.149Z,100153.64
2017-09-14T02:26:23.374Z,100158.19
2017-09-14T02:28:49.590Z,100152.02
2017-09-14T02:31:15.894Z,100144.69
2017-09-14T02:33:42.122Z,100155.16
2017-09-14T02:36:08.360Z,100150.28
2017-09-14T02:38:34.627Z,100161.47
2017-09-14T02:41:00.840Z,100157.01
2017-09-14T02:43:27.068Z,100160.81
2017-09-14T02:45:53.358Z,100151.04
2017-09-14T02:48:19.561Z,100149.78
2017-09-14T02:50:45.789Z,100148.58
2017-09-14T02:53:12.065Z,100153.06
2017-09-14T02:55:38.280Z,100152.44
2017-09-14T02:58:04.493Z,100143.13
2017-09-14T03:00:30.763Z,100152.64
2017-09-14T03:02:56.986Z,100151.64
2017-09-14T03:05:23.211Z,100150.75
2017-09-14T03:07:49.483Z,100156.40
2017-09-14T03:10:15.698Z,100150.13
2017-09-14T03:12:41.916Z,100150.48
2017-09-14T03:15:08.176Z,100148.17
2017-09-14T03:17:34.432Z,100152.84
2017-09-14T03:20:00.657Z,100153.25
2017-09-14T03:22:26.957Z,100157.12
2017-09-14T03:24:53.177Z,100159.23
2017-09-14T03:27:19.402Z,100157.48
2017-09-14T03:29:45.688Z,100154.84
2017-09-14T03:32:11.900Z,100151.78
2017-09-14T03:34:38.113Z,100146.81
2017-09-14T03:37:04.544Z,100152.08
2017-09-14T03:39:30.758Z,100152.52
2017-09-14T03:41:56.996Z,100150.85
2017-09-14T03:44:23.272Z,100147.21
2017-09-14T03:46:49.467Z,100141.47
2017-09-14T03:49:15.691Z,100143.84
2017-09-14T03:51:42.169Z,100151.36
2017-09-14T03:54:08.611Z,100150.35
2017-09-14T03:56:35.054Z,100149.30
2017-09-14T03:59:01.569Z,100150.56
2017-09-14T04:01:27.847Z,100149.63
2017-09-14T04:03:54.131Z,100151.36
2017-09-14T04:06:20.424Z,100142.07
2017-09-14T04:08:46.652Z,100140.31
2017-09-14T04:11:12.870Z,100144.57
2017-09-14T04:13:39.144Z,100142.40
2017-09-14T04:16:05.380Z,100133.98
2017-09-14T04:18:31.600Z,100138.13
2017-09-14T04:20:57.884Z,100141.01
2017-09-14T04:23:24.520Z,100134.05
2017-09-14T04:25:51.133Z,100127.14
2017-09-14T04:28:17.414Z,100127.48
2017-09-14T04:30:43.630Z,100129.03
2017-09-14T04:33:09.845Z,100134.95
2017-09-14T04:35:36.125Z,100129.20
2017-09-14T04:38:02.336Z,100125.84
2017-09-14T04:40:28.563Z,100119.30
2017-09-14T04:42:54.836Z,100117.05
2017-09-14T04:45:21.064Z,100122.95
2017-09-14T04:47:47.283Z,100119.05
2017-09-14T04:50:13.564Z,100115.45
2017-09-14T04:52:39.805Z,100117.54
2017-09-14T04:55:06.055Z,100119.56
2017-09-14T04:57:32.351Z,100115.00
2017-09-14T04:59:58.573Z,100114.22
2017-09-14T05:02:24.803Z,100118.93
2017-09-14T05:04:51.085Z,100117.20
2017-09-14T05:07:17.315Z,100116.52
2017-09-14T05:09:43.547Z,100115.21
2017-09-14T05:12:09.835Z,100114.97
2017-09-14T05:14:36.120Z,100109.44
2017-09-14T05:17:02.346Z,100113.20
2017-09-14T05:19:28.628Z,100111.42
2017-09-14T05:21:54.841Z,100102.30
2017-09-14T05:24:21.071Z,100101.09
2017-09-14T05:26:47.339Z,100098.45
2017-09-14T05:29:13.564Z,100104.80
2017-09-14T05:31:43.698Z,100090.83
2017-09-14T05:34:09.971Z,100089.11
2017-09-14T05:36:36.198Z,100089.29
2017-09-14T05:39:02.428Z,100087.78
2017-09-14T05:41:28.751Z,100088.23
2017-09-14T05:43:54.978Z,100082.92
2017-09-14T05:46:21.204Z,100082.48
2017-09-14T05:48:47.491Z,100082.05
2017-09-14T05:51:13.729Z,100080.65
2017-09-14T05:53:39.967Z,100079.08
2017-09-14T05:56:06.261Z,100075.69
2017-09-14T05:58:32.482Z,100074.01
2017-09-14T06:00:58.709Z,100072.33
2017-09-14T06:03:25.017Z,100072.84
2017-09-14T06:05:51.250Z,100075.23
2017-09-14T06:08:17.487Z,100069.11
2017-09-14T06:10:43.744Z,100075.41
2017-09-14T06:13:09.974Z,100073.81
2017-09-14T06:15:36.216Z,100071.67
2017-09-14T06:18:02.498Z,100073.62
2017-09-14T06:20:28.728Z,100068.95
2017-09-14T06:22:54.946Z,100073.88
2017-09-14T06:25:21.242Z,100068.91
2017-09-14T06:27:47.491Z,100065.16
2017-09-14T06:30:13.734Z,100068.91
2017-09-14T06:32:40.021Z,100064.98
2017-09-14T06:35:06.240Z,100061.80
2017-09-14T06:37:32.465Z,100056.06
2017-09-14T06:39:58.775Z,100058.79
2017-09-14T06:42:25.007Z,100061.03
2017-09-14T06:44:51.240Z,100057.34
2017-09-14T06:47:17.552Z,100050.35
2017-09-14T06:49:43.795Z,100057.05
2017-09-14T06:52:10.030Z,100050.13
2017-09-14T06:54:36.317Z,100050.66
2017-09-14T06:57:02.624Z,100046.59
2017-09-14T06:59:28.863Z,100037.18
2017-09-14T07:01:55.145Z,100038.51
2017-09-14T07:04:21.364Z,100032.97
2017-09-14T07:06:47.589Z,100029.93
2017-09-14T07:09:13.865Z,100035.34
2017-09-14T07:11:40.123Z,100034.75
2017-09-14T07:14:06.346Z,100030.48
2017-09-14T07:16:32.631Z,100029.91
2017-09-14T07:18:58.846Z,100027.03
2017-09-14T07:21:25.061Z,100030.59
2017-09-14T07:23:51.336Z,100021.51
2017-09-14T07:26:17.557Z,100014.89
2017-09-14T07:28:43.777Z,100014.32
2017-09-14T07:31:10.072Z,100011.27
2017-09-14T07:33:36.307Z,100010.78
2017-09-14T07:36:02.547Z,100007.05
2017-09-14T07:38:28.833Z,100006.93
2017-09-14T07:40:55.075Z,100006.95
2017-09-14T07:43:21.299Z,100003.10
2017-09-14T07:45:47.595Z,100002.45
2017-09-14T07:48:13.965Z,99996.98
2017-09-14T07:50:40.200Z,99993.59
2017-09-14T07:53:06.470Z,99990.20
2017-09-14T07:55:32.701Z,99979.77
2017-09-14T07:57:58.923Z,99976.73
2017-09-14T08:00:25.199Z,99972.09
2017-09-14T08:02:51.429Z,99976.44
2017-09-14T08:05:17.654Z,99967.53
2017-09-14T08:07:43.938Z,99967.27
2017-09-14T08:10:10.171Z,99971.00
2017-09-14T08:12:36.401Z,99967.73
2017-09-14T08:15:02.685Z,99957.80
2017-09-14T08:17:28.925Z,99957.47
2017-09-14T08:19:55.160Z,99949.56
2017-09-14T08:22:21.437Z,99950.56
2017-09-14T08:24:47.667Z,99945.96
2017-09-14T08:27:13.903Z,99947.95
2017-09-14T08:29:41.264Z,99946.96
2017-09-14T08:32:07.502Z,99939.12
2017-09-14T08:34:33.739Z,99941.88
2017-09-14T08:37:00.027Z,99928.34
2017-09-14T08:39:26.374Z,99922.94
2017-09-14T08:41:52.608Z,99918.89
2017-09-14T08:44:19.057Z,99917.34
2017-09-14T08:46:45.291Z,99908.17
2017-09-14T08:49:11.505Z,99904.34
2017-09-14T08:51:37.774Z,99902.48
2017-09-14T08:54:03.980Z,99900.09
2017-09-14T08:56:30.202Z,99897.10
2017-09-14T08:58:56.471Z,99897.42
2017-09-14T09:01:22.706Z,99895.69
2017-09-14T09:03:48.927Z,99897.34
2017-09-14T09:06:15.212Z,99893.23
2017-09-14T09:08:41.454Z,99888.45
2017-09-14T09:11:07.682Z,99885.91
2017-09-14T09:13:34.014Z,99884.88
2017-09-14T09:16:00.248Z,99874.90
2017-09-14T09:18:26.494Z,99869.69
2017-09-14T09:20:52.743Z,99875.90
2017-09-14T09:23:18.973Z,99868.12
2017-09-14T09:25:45.332Z,99870.11
2017-09-14T09:28:11.628Z,99864.86
2017-09-14T09:30:37.850Z,99854.08
2017-09-14T09:33:04.063Z,99853.90
2017-09-14T09:35:30.343Z,99845.80
2017-09-14T09:37:56.689Z,99848.36
2017-09-14T09:40:22.912Z,99841.16
2017-09-14T09:42:49.346Z,99835.87
2017-09-14T09:45:15.577Z,99834.42
2017-09-14T09:47:42.001Z,99827.09
2017-09-14T09:50:08.262Z,99823.69
2017-09-14T09:52:34.481Z,99823.85
2017-09-14T09:55:00.704Z,99824.03
2017-09-14T09:57:26.981Z,99815.97
2017-09-14T09:59:53.198Z,99809.72
2017-09-14T10:02:19.416Z,99803.47
2017-09-14T10:04:45.704Z,99802.30
2017-09-14T10:07:11.927Z,99805.77
2017-09-14T10:09:38.140Z,99797.05
2017-09-14T10:12:04.494Z,99789.48
2017-09-14T10:14:30.738Z,99787.44
2017-09-14T10:16:57.000Z,99784.28
2017-09-14T10:19:23.284Z,99781.69
2017-09-14T10:21:49.500Z,99775.98
2017-09-14T10:24:15.728Z,99772.59
2017-09-14T10:26:42.012Z,99773.41
2017-09-14T10:29:08.226Z,99771.67
2017-09-14T10:31:34.444Z,99765.55
2017-09-14T10:34:00.747Z,99755.61
2017-09-14T10:36:26.989Z,99758.38
2017-09-14T10:38:53.194Z,99751.47
2017-09-14T10:41:19.471Z,99744.94
2017-09-14T10:43:45.701Z,99743.35
2017-09-14T10:46:11.920Z,99743.33
2017-09-14T10:48:38.340Z,99735.38
2017-09-14T10:51:04.553Z,99734.92
2017-09-14T10:53:30.822Z,99726.83
2017-09-14T10:55:57.138Z,99726.91
2017-09-14T10:58:23.333Z,99707.20
2017-09-14T11:00:49.547Z,99709.34
2017-09-14T11:03:15.828Z,99702.81
2017-09-14T11:05:42.047Z,99700.32
2017-09-14T11:08:08.280Z,99700.16
2017-09-14T11:10:34.587Z,99688.73
2017-09-14T11:13:00.793Z,99684.80
2017-09-14T11:15:27.000Z,99676.20
2017-09-14T11:17:53.261Z,99673.57
2017-09-14T11:20:19.473Z,99665.02
2017-09-14T11:22:45.689Z,99663.25
2017-09-14T11:25:11.949Z,99660.84
2017-09-14T11:27:38.186Z,99651.82
2017-09-14T11:30:04.409Z,99643.08
2017-09-14T11:32:30.690Z,99635.06
2017-09-14T11:34:56.923Z,99634.30
2017-09-14T11:37:23.149Z,99627.59
2017-09-14T11:39:49.425Z,99621.50
2017-09-14T11:42:15.677Z,99621.36
2017-09-14T11:44:41.880Z,99614.08
2017-09-14T11:47:08.153Z,99616.13
2017-09-14T11:49:34.379Z,99605.71
2017-09-14T11:52:00.607Z,99598.80
2017-09-14T11:54:26.896Z,99598.09
2017-09-14T11:56:53.126Z,99594.54
2017-09-14T11:59:19.337Z,99584.61
2017-09-14T12:01:45.609Z,99584.53
2017-09-14T12:04:12.028Z,99578.36
2017-09-14T12:06:38.279Z,99576.00
2017-09-14T12:09:04.549Z,99571.38
2017-09-14T12:11:30.759Z,99568.06
2017-09-14T12:13:56.967Z,99570.47
2017-09-14T12:16:23.252Z,99564.67
2017-09-14T12:18:49.487Z,99556.64
2017-09-14T12:21:15.714Z,99552.03
2017-09-14T12:23:41.995Z,99549.15
2017-09-14T12:26:08.309Z,99538.39
2017-09-14T12:28:34.517Z,99537.03
2017-09-14T12:31:00.800Z,99529.39
2017-09-14T12:33:27.008Z,99526.92
2017-09-14T12:35:53.223Z,99526.22
2017-09-14T12:38:19.483Z,99518.14
2017-09-14T12:40:45.701Z,99513.61
2017-09-14T12:43:11.907Z,99506.48
2017-09-14T12:45:38.210Z,99499.28
2017-09-14T12:48:04.429Z,99510.52
2017-09-14T12:50:30.647Z,99503.59
2017-09-14T12:52:56.925Z,99497.43
2017-09-14T12:55:23.145Z,99491.22
2017-09-14T12:57:49.355Z,99486.94
2017-09-14T13:00:15.637Z,99483.58
2017-09-14T13:02:41.854Z,99480.59
2017-09-14T13:05:08.098Z,99468.30
2017-09-14T13:07:34.386Z,99477.83
2017-09-14T13:10:00.616Z,99467.19
2017-09-14T13:12:26.837Z,99468.54
2017-09-14T13:14:53.103Z,99469.86
2017-09-14T13:17:19.327Z,99458.48
2017-09-14T13:19:45.546Z,99463.96
2017-09-14T13:22:11.803Z,99454.69
2017-09-14T13:24:38.013Z,99449.17
2017-09-14T13:27:04.231Z,99442.50
2017-09-14T13:29:30.494Z,99443.17
2017-09-14T13:31:56.726Z,99442.13
2017-09-14T13:34:22.960Z,99438.01
2017-09-14T13:36:49.232Z,99438.47
2017-09-14T13:39:15.439Z,99435.20
2017-09-14T13:41:41.668Z,99435.26
2017-09-14T13:44:07.928Z,99431.80
2017-09-14T13:46:34.148Z,99424.54
2017-09-14T13:49:00.458Z,99432.96
2017-09-14T13:51:26.732Z,99425.26
2017-09-14T13:53:52.956Z,99429.52
2017-09-14T13:56:19.178Z,99420.00
2017-09-14T13:58:45.461Z,99424.61
2017-09-14T14:01:11.800Z,99417.20
2017-09-14T14:03:38.020Z,99413.82
2017-09-14T14:06:04.290Z,99411.67
2017-09-14T14:08:30.506Z,99406.31
2017-09-14T14:10:56.724Z,99404.64
2017-09-14T14:13:23.024Z,99398.95
2017-09-14T14:15:49.236Z,99396.92
2017-09-14T14:18:15.459Z,99395.85
2017-09-14T14:20:41.752Z,99393.06
2017-09-14T14:23:07.958Z,99392.16
2017-09-14T14:25:34.178Z,99391.41
2017-09-14T14:28:00.447Z,99381.51
2017-09-14T14:30:26.678Z,99377.67
2017-09-14T14:32:52.893Z,99379.99
2017-09-14T14:35:19.223Z,99376.01
2017-09-14T14:37:45.481Z,99368.72
2017-09-14T14:40:11.708Z,99365.23
2017-09-14T14:42:37.989Z,99361.88
2017-09-14T14:45:04.219Z,99371.18
2017-09-14T14:47:30.558Z,99365.38
2017-09-14T14:49:56.836Z,99360.50
2017-09-14T14:52:23.046Z,99359.67
2017-09-14T14:54:49.254Z,99360.02
2017-09-14T14:57:15.524Z,99356.52
2017-09-14T14:59:41.737Z,99355.95
2017-09-14T15:02:07.955Z,99358.11
2017-09-14T15:04:34.222Z,99356.80
2017-09-14T15:07:00.438Z,99354.16
2017-09-14T15:09:26.661Z,99350.22
2017-09-14T15:11:52.925Z,99346.47
2017-09-14T15:14:19.146Z,99355.47
2017-09-14T15:16:45.359Z,99350.09
2017-09-14T15:19:11.761Z,99350.95
2017-09-14T15:21:37.968Z,99344.27
2017-09-14T15:24:04.166Z,99344.42
2017-09-14T15:26:30.448Z,99346.45
2017-09-14T15:28:56.673Z,99343.95
2017-09-14T15:31:22.896Z,99339.80
2017-09-14T15:33:49.159Z,99328.88
2017-09-14T15:36:15.375Z,99334.19
2017-09-14T15:38:41.590Z,99332.42
2017-09-14T15:41:07.883Z,99333.64
2017-09-14T15:43:34.441Z,99333.25
2017-09-14T15:48:33.103Z,99332.77
2017-09-14T15:50:59.420Z,99331.29
2017-09-14T15:53:25.985Z,99325.14
2017-09-14T15:55:52.344Z,99326.08
2017-09-14T15:58:18.580Z,99327.41
2017-09-14T16:00:44.813Z,99328.84
2017-09-14T16:03:11.350Z,99329.50
2017-09-14T16:05:37.970Z,99325.03
2017-09-14T16:08:04.389Z,99322.25
2017-09-14T16:10:30.830Z,99322.33
2017-09-14T16:12:57.050Z,99323.16
2017-09-14T16:15:23.298Z,99323.06
2017-09-14T16:17:49.568Z,99320.52
2017-09-14T16:20:15.788Z,99320.77
2017-09-14T16:22:42.195Z,99313.94
2017-09-14T16:25:08.622Z,99321.86
2017-09-14T16:27:35.055Z,99325.24
2017-09-14T16:30:01.496Z,99324.03
2017-09-14T16:32:28.279Z,99328.09
2017-09-14T16:34:54.507Z,99317.42
2017-09-14T16:37:20.721Z,99324.75
2017-09-14T16:39:47.027Z,99322.16
2017-09-14T16:42:13.255Z,99325.61
2017-09-14T16:44:39.580Z,99329.93
2017-09-14T16:47:06.220Z,99327.36
2017-09-14T16:49:33.474Z,99322.21
2017-09-14T16:52:00.116Z,99322.33
2017-09-14T16:54:26.537Z,99324.80
2017-09-14T16:56:52.767Z,99326.73
2017-09-14T16:59:18.993Z,99332.84
2017-09-14T17:01:45.441Z,99334.25
2017-09-14T17:04:11.646Z,99338.34
2017-09-14T17:06:37.895Z,99345.17
2017-09-14T17:09:04.328Z,99352.21
2017-09-14T17:11:30.761Z,99356.02
2017-09-14T17:13:57.402Z,99345.30
2017-09-14T17:16:23.816Z,99356.69
2017-09-14T17:18:50.268Z,99362.09
2017-09-14T17:21:16.496Z,99364.22
2017-09-14T17:23:43.099Z,99369.94
2017-09-14T17:26:09.416Z,99376.64
2017-09-14T17:28:36.001Z,99373.31
2017-09-14T17:31:02.427Z,99379.45
2017-09-14T17:33:28.856Z,99378.83
2017-09-14T17:35:55.049Z,99386.61
2017-09-14T17:38:21.520Z,99387.89
2017-09-14T17:40:47.822Z,99391.05
2017-09-14T17:43:14.023Z,99388.78
2017-09-14T17:45:40.419Z,99398.53
2017-09-14T17:48:06.632Z,99397.54
2017-09-14T17:50:32.833Z,99400.31
2017-09-14T17:52:59.105Z,99405.07
2017-09-14T17:55:25.311Z,99398.92
2017-09-14T17:57:51.719Z,99406.05
2017-09-14T18:00:18.232Z,99409.17
2017-09-14T18:02:44.614Z,99409.41
2017-09-14T18:05:10.862Z,99413.16
2017-09-14T18:07:37.479Z,99411.09
2017-09-14T18:10:03.731Z,99408.66
2017-09-14T18:12:30.093Z,99399.59
2017-09-14T18:14:56.538Z,99401.25
2017-09-14T18:17:22.979Z,99410.91
2017-09-14T18:19:49.396Z,99410.71
2017-09-14T18:22:15.690Z,99411.44
2017-09-14T18:27:14.702Z,99408.92
2017-09-14T18:29:41.317Z,99412.78
2017-09-14T18:32:07.736Z,99417.00
2017-09-14T18:34:33.986Z,99416.16
2017-09-14T18:37:00.633Z,99401.69
2017-09-14T18:39:26.985Z,99414.41
2017-09-14T18:41:53.297Z,99419.14
2017-09-14T18:44:19.934Z,99415.15
2017-09-14T18:46:46.152Z,99416.41
2017-09-14T18:49:12.372Z,99413.95
2017-09-14T18:51:38.617Z,99414.16
2017-09-14T18:54:05.111Z,99409.19
2017-09-14T18:56:31.478Z,99410.00
2017-09-14T18:58:57.701Z,99408.88
2017-09-14T19:01:23.938Z,99405.56
2017-09-14T19:03:50.307Z,99412.03
2017-09-14T19:06:16.599Z,99405.33
2017-09-14T19:08:42.989Z,99408.10
2017-09-14T19:11:09.675Z,99409.36
2017-09-14T19:13:35.898Z,99403.00
2017-09-14T19:16:02.129Z,99400.78
2017-09-14T19:18:28.654Z,99402.60
2017-09-14T19:20:55.083Z,99399.01
2017-09-14T19:23:21.285Z,99404.41
2017-09-14T19:25:47.762Z,99403.50
2017-09-14T19:28:14.403Z,99401.03
2017-09-14T19:30:40.636Z,99403.20
2017-09-14T19:33:07.293Z,99397.50
2017-09-14T19:35:33.704Z,99399.13
2017-09-14T19:38:00.036Z,99394.23
2017-09-14T19:40:26.515Z,99392.21
2017-09-14T19:42:52.961Z,99399.37
2017-09-14T19:45:19.338Z,99397.67
2017-09-14T19:47:45.764Z,99396.50
2017-09-14T19:50:11.979Z,99405.87
2017-09-14T19:52:38.368Z,99398.59
2017-09-14T19:55:04.611Z,99402.42
2017-09-14T19:57:31.178Z,99404.42
2017-09-14T19:59:57.573Z,99413.22
2017-09-14T20:02:24.041Z,99412.89
2017-09-14T20:04:50.497Z,99407.81
2017-09-14T20:07:17.132Z,99408.95
2017-09-14T20:09:43.552Z,99413.13
2017-09-14T20:12:09.793Z,99411.92
2017-09-14T20:14:36.398Z,99420.80
2017-09-14T20:17:02.821Z,99412.23
2017-09-14T20:19:29.263Z,99416.55
2017-09-14T20:21:59.416Z,99411.95
2017-09-14T20:24:26.053Z,99408.94
2017-09-14T20:26:52.489Z,99407.40
2017-09-14T20:29:18.980Z,99413.53
2017-09-14T20:31:45.667Z,99409.89
2017-09-14T20:34:12.215Z,99416.03
2017-09-14T20:36:38.683Z,99412.64
2017-09-14T20:39:05.121Z,99419.03
2017-09-14T20:41:31.707Z,99413.19
2017-09-14T20:43:58.182Z,99410.88
2017-09-14T20:46:24.626Z,99411.40
2017-09-14T20:48:51.042Z,99400.44
2017-09-14T20:51:17.386Z,99395.93
2017-09-14T20:53:43.826Z,99396.19
2017-09-14T20:56:10.207Z,99397.33
2017-09-14T20:58:36.487Z,99397.44
2017-09-14T21:01:02.866Z,99396.77
2017-09-14T21:03:29.468Z,99399.73
2017-09-14T21:05:55.882Z,99402.98
2017-09-14T21:08:22.362Z,99405.66
2017-09-14T21:10:48.566Z,99398.97
2017-09-14T21:13:14.821Z,99406.27
2017-09-14T21:15:41.260Z,99401.69
2017-09-14T21:18:07.487Z,99404.95
2017-09-14T21:20:33.719Z,99395.74
2017-09-14T21:22:59.961Z,99404.73
2017-09-14T21:25:26.543Z,99396.09
2017-09-14T21:27:52.964Z,99395.67
2017-09-14T21:30:19.405Z,99387.52
2017-09-14T21:32:45.824Z,99384.68
2017-09-14T21:35:12.112Z,99383.86
2017-09-14T21:37:38.732Z,99385.88
2017-09-14T21:40:04.980Z,99380.48
2017-09-14T21:42:31.269Z,99375.45
2017-09-14T21:44:57.536Z,99372.31
2017-09-14T21:47:23.746Z,99378.32
2017-09-14T21:49:49.965Z,99369.09
2017-09-14T21:52:16.297Z,99368.87
2017-09-14T21:54:42.520Z,99376.11
2017-09-14T21:57:08.733Z,99367.29
2017-09-14T21:59:34.987Z,99362.80
2017-09-14T22:02:01.199Z,99365.24
2017-09-14T22:04:27.409Z,99359.31
2017-09-14T22:06:53.685Z,99363.40
2017-09-14T22:09:19.897Z,99359.41
2017-09-14T22:11:46.107Z,99356.18
2017-09-14T22:14:12.691Z,99362.19
2017-09-14T22:16:39.182Z,99360.44
2017-09-14T22:19:05.633Z,99354.48
2017-09-14T22:21:31.921Z,99360.02
2017-09-14T22:23:58.142Z,99365.17
2017-09-14T22:26:24.357Z,99359.45
2017-09-14T22:28:50.622Z,99360.95
2017-09-14T22:31:16.846Z,99357.96
2017-09-14T22:33:43.063Z,99358.63
2017-09-14T22:36:09.335Z,99349.31
2017-09-14T22:38:35.551Z,99364.09
2017-09-14T22:41:01.779Z,99352.68
2017-09-14T22:43:28.066Z,99361.77
2017-09-14T22:45:54.284Z,99354.59
2017-09-14T22:48:20.511Z,99354.04
2017-09-14T22:50:46.796Z,99360.00
2017-09-14T22:53:13.020Z,99359.75
2017-09-14T22:55:39.240Z,99358.93
2017-09-14T22:58:05.540Z,99357.14
2017-09-14T23:00:31.747Z,99357.72
2017-09-14T23:02:57.968Z,99357.70
2017-09-14T23:05:24.238Z,99360.56
2017-09-14T23:07:50.451Z,99349.98
2017-09-14T23:10:16.853Z,99352.41
2017-09-14T23:12:43.132Z,99352.28
2017-09-14T23:15:09.352Z,99360.27
2017-09-14T23:17:35.578Z,99355.94
2017-09-14T23:20:01.842Z,99354.56
2017-09-14T23:22:28.200Z,99350.92
2017-09-14T23:24:54.390Z,99358.09
2017-09-14T23:27:20.668Z,99352.27
2017-09-14T23:29:46.873Z,99356.44
2017-09-14T23:32:13.086Z,99358.33
2017-09-14T23:34:39.354Z,99357.91
2017-09-14T23:37:05.564Z,99357.39
2017-09-14T23:39:31.786Z,99354.16
2017-09-14T23:41:58.050Z,99363.63
2017-09-14T23:44:24.272Z,99359.82
2017-09-14T23:46:50.485Z,99362.79
2017-09-14T23:49:16.748Z,99361.96
2017-09-14T23:51:42.961Z,99352.91
2017-09-14T23:54:09.186Z,99360.20
2017-09-14T23:56:35.466Z,99357.22
2017-09-14T23:59:01.692Z,99358.45
